createdAt,value
2019-02-24T00:01:03.927Z,47.84
2019-02-24T00:11:09.902Z,48.38
2019-02-24T00:21:17.863Z,48.87
2019-02-24T00:31:23.633Z,48.85
2019-02-24T00:41:29.830Z,49.36
2019-02-24T00:51:35.557Z,49.60
2019-02-24T01:01:41.352Z,49.52
2019-02-24T01:11:47.047Z,50.19
2019-02-24T01:21:53.017Z,49.87
2019-02-24T01:31:59.406Z,50.08
2019-02-24T01:42:05.285Z,49.58
2019-02-24T01:52:11.220Z,48.54
2019-02-24T02:02:16.899Z,49.28
2019-02-24T02:12:22.696Z,51.19
2019-02-24T02:22:28.388Z,50.81
2019-02-24T02:32:34.317Z,51.95
2019-02-24T02:42:40.250Z,51.65
2019-02-24T02:52:46.010Z,52.45
2019-02-24T03:02:51.939Z,52.17
2019-02-24T03:12:57.706Z,51.87
2019-02-24T03:23:03.436Z,52.28
2019-02-24T03:33:09.226Z,52.67
2019-02-24T03:43:16.403Z,50.70
2019-02-24T03:53:22.168Z,51.33
2019-02-24T04:03:27.911Z,51.33
2019-02-24T04:13:33.657Z,51.91
2019-02-24T04:23:39.461Z,51.91
2019-02-24T04:33:45.322Z,52.43
2019-02-24T04:43:50.970Z,53.23
2019-02-24T04:53:56.824Z,53.18
2019-02-24T05:04:02.470Z,53.80
2019-02-24T05:14:08.169Z,55.16
2019-02-24T05:24:15.912Z,55.70
2019-02-24T05:34:21.735Z,54.00
2019-02-24T05:44:27.582Z,56.48
2019-02-24T05:54:33.335Z,57.94
2019-02-24T06:04:39.020Z,58.42
2019-02-24T06:14:45.337Z,60.55
2019-02-24T06:24:51.694Z,61.42
2019-02-24T06:34:57.466Z,60.68
2019-02-24T06:45:03.564Z,61.37
2019-02-24T06:55:09.654Z,61.25
2019-02-24T07:05:15.486Z,61.57
2019-02-24T07:15:21.381Z,59.34
2019-02-24T07:25:27.088Z,57.96
2019-02-24T07:35:32.810Z,57.46
2019-02-24T07:45:38.594Z,54.66
2019-02-24T07:55:44.656Z,54.80
2019-02-24T08:05:50.408Z,54.32
2019-02-24T08:15:56.214Z,54.16
2019-02-24T08:26:01.936Z,54.63
2019-02-24T08:36:09.366Z,52.31
2019-02-24T08:46:15.273Z,50.35
2019-02-24T08:56:21.124Z,50.04
2019-02-24T09:06:26.859Z,47.22
2019-02-24T09:16:32.664Z,46.50
2019-02-24T09:26:38.464Z,45.43
2019-02-24T09:36:44.370Z,42.07
2019-02-24T09:46:50.195Z,39.79
2019-02-24T09:56:56.456Z,40.12
2019-02-24T10:07:02.619Z,39.39
2019-02-24T10:17:08.785Z,34.84
2019-02-24T10:27:14.525Z,35.47
2019-02-24T10:37:20.485Z,36.80
2019-02-24T10:47:26.428Z,36.84
2019-02-24T10:57:32.530Z,37.82
2019-02-24T11:07:38.357Z,37.55
2019-02-24T11:17:44.146Z,38.37
2019-02-24T11:27:49.942Z,36.76
2019-02-24T11:37:55.650Z,38.31
2019-02-24T11:48:01.609Z,38.85
2019-02-24T11:58:07.440Z,38.63
2019-02-24T12:08:13.270Z,39.20
2019-02-24T12:18:19.086Z,39.33
2019-02-24T12:28:25.078Z,39.86
2019-02-24T12:38:30.783Z,39.92
2019-02-24T12:48:36.906Z,39.37
2019-02-24T12:58:42.930Z,38.02
2019-02-24T13:08:50.397Z,35.80
2019-02-24T13:18:56.308Z,37.57
2019-02-24T13:29:02.146Z,35.96
2019-02-24T13:39:09.950Z,34.75
2019-02-24T13:49:15.830Z,34.50
2019-02-24T13:59:27.036Z,35.26
2019-02-24T14:09:33.705Z,36.21
2019-02-24T14:19:42.109Z,35.80
2019-02-24T14:29:47.816Z,35.35
2019-02-24T14:39:53.872Z,36.12
2019-02-24T14:49:59.729Z,36.28
2019-02-24T15:00:13.827Z,36.59
2019-02-24T15:10:21.957Z,37.20
2019-02-24T15:20:28.837Z,36.55
2019-02-24T15:30:36.916Z,36.95
2019-02-24T15:40:42.696Z,37.58
2019-02-24T15:50:48.680Z,38.62
2019-02-24T16:00:55.342Z,39.25
2019-02-24T16:11:01.420Z,42.35
2019-02-24T16:21:07.395Z,45.12
2019-02-24T16:31:13.507Z,56.40
2019-02-24T16:41:19.341Z,53.81
2019-02-24T16:51:25.141Z,58.01
2019-02-24T17:01:31.081Z,69.49
2019-02-24T17:11:37.159Z,59.35
2019-02-24T17:21:43.072Z,58.82
2019-02-24T17:31:48.815Z,67.35
2019-02-24T17:41:56.500Z,63.80
2019-02-24T17:52:02.371Z,75.90
2019-02-24T18:02:08.730Z,67.05
2019-02-24T18:12:16.071Z,60.69
2019-02-24T18:22:21.759Z,62.61
2019-02-24T18:32:27.683Z,49.88
2019-02-24T18:42:33.895Z,49.35
2019-02-24T18:52:39.898Z,48.50
2019-02-24T19:02:45.587Z,48.14
2019-02-24T19:12:51.325Z,48.08
2019-02-24T19:22:58.718Z,48.83
2019-02-24T19:33:04.881Z,49.19
2019-02-24T19:43:12.498Z,49.89
2019-02-24T19:53:19.839Z,51.00
2019-02-24T20:03:26.565Z,49.83
2019-02-24T20:13:34.189Z,49.64
2019-02-24T20:23:41.461Z,50.92
2019-02-24T20:33:47.848Z,50.27
2019-02-24T20:43:53.886Z,52.25
2019-02-24T20:53:59.809Z,54.50
2019-02-24T21:04:06.048Z,53.92
2019-02-24T21:14:11.822Z,55.23
2019-02-24T21:24:19.057Z,56.34
2019-02-24T21:34:24.820Z,56.34
2019-02-24T21:44:30.735Z,56.45
2019-02-24T21:54:37.421Z,58.86
2019-02-24T22:04:43.360Z,60.90
2019-02-24T22:14:49.265Z,63.82
2019-02-24T22:24:55.617Z,64.39
2019-02-24T22:35:01.394Z,66.59
2019-02-24T22:45:10.424Z,69.29
2019-02-24T22:55:19.937Z,71.95
2019-02-24T23:05:25.862Z,72.56
2019-02-24T23:15:31.784Z,78.05
2019-02-24T23:25:37.477Z,81.86
2019-02-24T23:35:43.274Z,81.86
2019-02-24T23:45:49.170Z,85.82
2019-02-24T23:55:55.175Z,87.55
